sensor_id;sensor_type;location;lat;lon;timestamp;P1;durP1;ratioP1;P2;durP2;ratioP2
68315;SDS011;55508;54.368;18.406;2024-03-29T00:01:25;4.40;;;4.03;;
68315;SDS011;55508;54.368;18.406;2024-03-29T00:03:51;4.15;;;3.75;;
68315;SDS011;55508;54.368;18.406;2024-03-29T00:06:19;3.90;;;3.60;;
68315;SDS011;55508;54.368;18.406;2024-03-29T00:08:45;3.80;;;3.50;;
68315;SDS011;55508;54.368;18.406;2024-03-29T00:11:11;3.35;;;3.15;;
68315;SDS011;55508;54.368;18.406;2024-03-29T00:17:38;4.93;;;4.00;;
68315;SDS011;55508;54.368;18.406;2024-03-29T00:20:04;4.65;;;4.25;;
68315;SDS011;55508;54.368;18.406;2024-03-29T00:22:31;4.03;;;3.72;;
68315;SDS011;55508;54.368;18.406;2024-03-29T00:24:58;4.38;;;3.97;;
68315;SDS011;55508;54.368;18.406;2024-03-29T00:27:24;7.40;;;3.78;;
68315;SDS011;55508;54.368;18.406;2024-03-29T00:29:52;4.22;;;3.83;;
68315;SDS011;55508;54.368;18.406;2024-03-29T00:32:19;5.40;;;3.85;;
68315;SDS011;55508;54.368;18.406;2024-03-29T00:34:45;4.85;;;4.45;;
68315;SDS011;55508;54.368;18.406;2024-03-29T00:37:12;6.97;;;4.18;;
68315;SDS011;55508;54.368;18.406;2024-03-29T00:39:38;4.38;;;4.07;;
68315;SDS011;55508;54.368;18.406;2024-03-29T00:42:04;5.55;;;4.22;;
68315;SDS011;55508;54.368;18.406;2024-03-29T00:44:34;4.00;;;3.55;;
68315;SDS011;55508;54.368;18.406;2024-03-29T00:47:06;4.80;;;4.20;;
68315;SDS011;55508;54.368;18.406;2024-03-29T00:49:33;3.15;;;2.85;;
68315;SDS011;55508;54.368;18.406;2024-03-29T00:52:00;3.00;;;2.80;;
68315;SDS011;55508;54.368;18.406;2024-03-29T00:54:27;3.50;;;3.20;;
68315;SDS011;55508;54.368;18.406;2024-03-29T00:56:53;3.92;;;3.10;;
68315;SDS011;55508;54.368;18.406;2024-03-29T00:59:19;2.92;;;2.70;;
68315;SDS011;55508;54.368;18.406;2024-03-29T01:01:49;3.00;;;2.63;;
68315;SDS011;55508;54.368;18.406;2024-03-29T01:04:15;4.18;;;3.20;;
68315;SDS011;55508;54.368;18.406;2024-03-29T01:06:42;3.15;;;2.40;;
68315;SDS011;55508;54.368;18.406;2024-03-29T01:09:09;3.35;;;2.15;;
68315;SDS011;55508;54.368;18.406;2024-03-29T01:11:39;3.67;;;2.03;;
68315;SDS011;55508;54.368;18.406;2024-03-29T01:14:05;8.50;;;3.80;;
68315;SDS011;55508;54.368;18.406;2024-03-29T01:16:32;7.07;;;3.70;;
68315;SDS011;55508;54.368;18.406;2024-03-29T01:18:58;6.25;;;3.35;;
68315;SDS011;55508;54.368;18.406;2024-03-29T01:21:28;5.03;;;2.33;;
68315;SDS011;55508;54.368;18.406;2024-03-29T01:23:54;1.70;;;1.60;;
68315;SDS011;55508;54.368;18.406;2024-03-29T01:26:20;3.58;;;2.30;;
68315;SDS011;55508;54.368;18.406;2024-03-29T01:28:46;3.13;;;1.73;;
68315;SDS011;55508;54.368;18.406;2024-03-29T01:31:12;2.15;;;1.77;;
68315;SDS011;55508;54.368;18.406;2024-03-29T01:33:39;1.30;;;1.20;;
68315;SDS011;55508;54.368;18.406;2024-03-29T01:36:07;1.10;;;1.00;;
68315;SDS011;55508;54.368;18.406;2024-03-29T01:38:33;1.80;;;1.20;;
68315;SDS011;55508;54.368;18.406;2024-03-29T01:41:00;1.20;;;1.10;;
68315;SDS011;55508;54.368;18.406;2024-03-29T01:43:26;1.48;;;1.23;;
68315;SDS011;55508;54.368;18.406;2024-03-29T01:45:55;1.17;;;1.00;;
68315;SDS011;55508;54.368;18.406;2024-03-29T01:48:22;1.20;;;1.10;;
68315;SDS011;55508;54.368;18.406;2024-03-29T01:50:50;2.17;;;1.20;;
68315;SDS011;55508;54.368;18.406;2024-03-29T01:53:18;1.35;;;1.10;;
68315;SDS011;55508;54.368;18.406;2024-03-29T01:55:45;1.30;;;1.20;;
68315;SDS011;55508;54.368;18.406;2024-03-29T01:58:12;1.17;;;1.08;;
68315;SDS011;55508;54.368;18.406;2024-03-29T02:00:42;1.50;;;1.40;;
68315;SDS011;55508;54.368;18.406;2024-03-29T02:03:13;2.72;;;1.85;;
68315;SDS011;55508;54.368;18.406;2024-03-29T02:05:40;4.45;;;3.90;;
68315;SDS011;55508;54.368;18.406;2024-03-29T02:08:07;3.67;;;3.35;;
68315;SDS011;55508;54.368;18.406;2024-03-29T02:10:34;2.20;;;1.55;;
68315;SDS011;55508;54.368;18.406;2024-03-29T02:13:01;2.25;;;1.02;;
68315;SDS011;55508;54.368;18.406;2024-03-29T02:15:28;3.15;;;2.85;;
68315;SDS011;55508;54.368;18.406;2024-03-29T02:17:55;3.53;;;3.20;;
68315;SDS011;55508;54.368;18.406;2024-03-29T02:20:21;2.30;;;2.10;;
68315;SDS011;55508;54.368;18.406;2024-03-29T02:22:54;2.40;;;2.20;;
68315;SDS011;55508;54.368;18.406;2024-03-29T02:25:23;3.70;;;3.28;;
68315;SDS011;55508;54.368;18.406;2024-03-29T02:27:50;2.03;;;1.85;;
68315;SDS011;55508;54.368;18.406;2024-03-29T02:30:17;1.38;;;1.27;;
68315;SDS011;55508;54.368;18.406;2024-03-29T02:32:43;1.25;;;1.02;;
68315;SDS011;55508;54.368;18.406;2024-03-29T02:35:10;1.25;;;1.10;;
68315;SDS011;55508;54.368;18.406;2024-03-29T02:37:36;2.85;;;1.20;;
68315;SDS011;55508;54.368;18.406;2024-03-29T02:40:02;2.28;;;1.60;;
68315;SDS011;55508;54.368;18.406;2024-03-29T02:42:29;1.50;;;1.40;;
68315;SDS011;55508;54.368;18.406;2024-03-29T02:44:56;1.80;;;1.55;;
68315;SDS011;55508;54.368;18.406;2024-03-29T02:47:22;2.10;;;1.50;;
68315;SDS011;55508;54.368;18.406;2024-03-29T02:49:48;2.70;;;1.58;;
68315;SDS011;55508;54.368;18.406;2024-03-29T02:52:14;1.10;;;1.00;;
68315;SDS011;55508;54.368;18.406;2024-03-29T02:54:41;3.15;;;1.20;;
68315;SDS011;55508;54.368;18.406;2024-03-29T02:57:07;1.02;;;1.02;;
68315;SDS011;55508;54.368;18.406;2024-03-29T02:59:33;1.35;;;1.25;;
68315;SDS011;55508;54.368;18.406;2024-03-29T03:02:00;1.83;;;1.20;;
68315;SDS011;55508;54.368;18.406;2024-03-29T03:04:26;2.78;;;1.27;;
68315;SDS011;55508;54.368;18.406;2024-03-29T03:06:52;1.65;;;1.10;;
68315;SDS011;55508;54.368;18.406;2024-03-29T03:09:18;1.52;;;1.42;;
68315;SDS011;55508;54.368;18.406;2024-03-29T03:12:03;1.40;;;1.30;;
68315;SDS011;55508;54.368;18.406;2024-03-29T03:14:29;2.55;;;1.63;;
68315;SDS011;55508;54.368;18.406;2024-03-29T03:16:55;1.70;;;1.60;;
68315;SDS011;55508;54.368;18.406;2024-03-29T03:19:22;2.65;;;2.00;;
68315;SDS011;55508;54.368;18.406;2024-03-29T03:21:50;1.92;;;1.70;;
68315;SDS011;55508;54.368;18.406;2024-03-29T03:24:16;1.63;;;1.52;;
68315;SDS011;55508;54.368;18.406;2024-03-29T03:26:42;1.50;;;1.40;;
68315;SDS011;55508;54.368;18.406;2024-03-29T03:29:08;1.60;;;1.50;;
68315;SDS011;55508;54.368;18.406;2024-03-29T03:31:35;1.75;;;1.58;;
68315;SDS011;55508;54.368;18.406;2024-03-29T03:34:02;1.63;;;1.52;;
68315;SDS011;55508;54.368;18.406;2024-03-29T03:36:28;1.98;;;1.52;;
68315;SDS011;55508;54.368;18.406;2024-03-29T03:38:54;1.85;;;1.30;;
68315;SDS011;55508;54.368;18.406;2024-03-29T03:41:21;1.48;;;1.38;;
68315;SDS011;55508;54.368;18.406;2024-03-29T03:43:47;1.58;;;1.20;;
68315;SDS011;55508;54.368;18.406;2024-03-29T03:46:13;1.70;;;1.60;;
68315;SDS011;55508;54.368;18.406;2024-03-29T03:48:39;1.67;;;1.40;;
68315;SDS011;55508;54.368;18.406;2024-03-29T03:51:05;1.50;;;1.17;;
68315;SDS011;55508;54.368;18.406;2024-03-29T03:53:32;1.30;;;1.13;;
68315;SDS011;55508;54.368;18.406;2024-03-29T03:55:58;2.95;;;1.30;;
68315;SDS011;55508;54.368;18.406;2024-03-29T03:58:24;2.92;;;1.35;;
68315;SDS011;55508;54.368;18.406;2024-03-29T04:00:50;1.48;;;1.20;;
68315;SDS011;55508;54.368;18.406;2024-03-29T04:03:16;3.90;;;1.25;;
68315;SDS011;55508;54.368;18.406;2024-03-29T04:05:43;2.25;;;1.20;;
68315;SDS011;55508;54.368;18.406;2024-03-29T04:08:09;2.47;;;1.08;;
68315;SDS011;55508;54.368;18.406;2024-03-29T04:10:38;1.70;;;1.20;;
68315;SDS011;55508;54.368;18.406;2024-03-29T04:13:05;2.45;;;1.13;;
68315;SDS011;55508;54.368;18.406;2024-03-29T04:15:31;1.13;;;1.00;;
68315;SDS011;55508;54.368;18.406;2024-03-29T04:17:59;3.28;;;0.90;;
68315;SDS011;55508;54.368;18.406;2024-03-29T04:20:26;1.20;;;1.10;;
68315;SDS011;55508;54.368;18.406;2024-03-29T04:22:52;1.67;;;1.20;;
68315;SDS011;55508;54.368;18.406;2024-03-29T04:25:18;1.30;;;1.20;;
68315;SDS011;55508;54.368;18.406;2024-03-29T04:27:44;3.08;;;1.30;;
68315;SDS011;55508;54.368;18.406;2024-03-29T04:30:10;5.88;;;1.30;;
68315;SDS011;55508;54.368;18.406;2024-03-29T04:32:37;3.35;;;1.40;;
68315;SDS011;55508;54.368;18.406;2024-03-29T04:35:03;2.15;;;1.48;;
68315;SDS011;55508;54.368;18.406;2024-03-29T04:37:30;2.47;;;1.55;;
68315;SDS011;55508;54.368;18.406;2024-03-29T04:39:56;1.67;;;1.58;;
68315;SDS011;55508;54.368;18.406;2024-03-29T04:42:22;2.15;;;1.60;;
68315;SDS011;55508;54.368;18.406;2024-03-29T04:44:48;2.13;;;1.42;;
68315;SDS011;55508;54.368;18.406;2024-03-29T04:47:14;1.73;;;1.42;;
68315;SDS011;55508;54.368;18.406;2024-03-29T04:49:41;4.10;;;1.50;;
68315;SDS011;55508;54.368;18.406;2024-03-29T04:52:07;1.60;;;1.50;;
68315;SDS011;55508;54.368;18.406;2024-03-29T04:54:33;2.22;;;1.70;;
68315;SDS011;55508;54.368;18.406;2024-03-29T04:57:00;3.58;;;2.03;;
68315;SDS011;55508;54.368;18.406;2024-03-29T05:01:58;4.78;;;1.63;;
68315;SDS011;55508;54.368;18.406;2024-03-29T05:04:25;1.80;;;1.40;;
68315;SDS011;55508;54.368;18.406;2024-03-29T05:06:54;3.80;;;1.55;;
68315;SDS011;55508;54.368;18.406;2024-03-29T05:09:21;5.00;;;1.23;;
68315;SDS011;55508;54.368;18.406;2024-03-29T05:11:48;3.17;;;1.40;;
68315;SDS011;55508;54.368;18.406;2024-03-29T05:14:15;3.17;;;1.52;;
68315;SDS011;55508;54.368;18.406;2024-03-29T05:16:45;2.78;;;1.63;;
68315;SDS011;55508;54.368;18.406;2024-03-29T05:19:13;1.75;;;1.48;;
68315;SDS011;55508;54.368;18.406;2024-03-29T05:21:39;2.45;;;1.50;;
68315;SDS011;55508;54.368;18.406;2024-03-29T05:24:06;2.00;;;1.17;;
68315;SDS011;55508;54.368;18.406;2024-03-29T05:26:33;2.55;;;1.45;;
68315;SDS011;55508;54.368;18.406;2024-03-29T05:29:00;3.90;;;2.00;;
68315;SDS011;55508;54.368;18.406;2024-03-29T05:31:26;3.67;;;2.17;;
68315;SDS011;55508;54.368;18.406;2024-03-29T05:33:52;3.95;;;2.38;;
68315;SDS011;55508;54.368;18.406;2024-03-29T05:36:19;5.50;;;2.55;;
68315;SDS011;55508;54.368;18.406;2024-03-29T05:38:45;6.10;;;2.55;;
68315;SDS011;55508;54.368;18.406;2024-03-29T05:41:11;4.13;;;2.65;;
68315;SDS011;55508;54.368;18.406;2024-03-29T05:43:41;7.80;;;2.80;;
68315;SDS011;55508;54.368;18.406;2024-03-29T05:46:07;4.13;;;2.70;;
68315;SDS011;55508;54.368;18.406;2024-03-29T05:48:35;3.15;;;2.50;;
68315;SDS011;55508;54.368;18.406;2024-03-29T05:51:01;4.82;;;2.00;;
68315;SDS011;55508;54.368;18.406;2024-03-29T05:53:27;5.20;;;2.30;;
68315;SDS011;55508;54.368;18.406;2024-03-29T05:55:54;2.90;;;2.08;;
68315;SDS011;55508;54.368;18.406;2024-03-29T05:58:20;5.45;;;2.20;;
68315;SDS011;55508;54.368;18.406;2024-03-29T06:00:46;3.80;;;2.55;;
68315;SDS011;55508;54.368;18.406;2024-03-29T06:03:13;3.95;;;2.70;;
68315;SDS011;55508;54.368;18.406;2024-03-29T06:05:39;3.70;;;2.70;;
68315;SDS011;55508;54.368;18.406;2024-03-29T06:08:07;2.90;;;2.40;;
68315;SDS011;55508;54.368;18.406;2024-03-29T06:10:33;5.05;;;3.20;;
68315;SDS011;55508;54.368;18.406;2024-03-29T06:13:00;4.80;;;2.53;;
68315;SDS011;55508;54.368;18.406;2024-03-29T06:15:46;9.73;;;6.85;;
68315;SDS011;55508;54.368;18.406;2024-03-29T06:18:30;8.18;;;6.15;;
68315;SDS011;55508;54.368;18.406;2024-03-29T06:20:57;6.55;;;5.57;;
68315;SDS011;55508;54.368;18.406;2024-03-29T06:23:24;4.57;;;3.45;;
68315;SDS011;55508;54.368;18.406;2024-03-29T06:25:50;4.75;;;3.20;;
68315;SDS011;55508;54.368;18.406;2024-03-29T06:28:17;8.48;;;5.47;;
68315;SDS011;55508;54.368;18.406;2024-03-29T06:30:43;5.07;;;3.08;;
68315;SDS011;55508;54.368;18.406;2024-03-29T06:33:09;7.30;;;4.70;;
68315;SDS011;55508;54.368;18.406;2024-03-29T06:35:35;12.00;;;6.38;;
68315;SDS011;55508;54.368;18.406;2024-03-29T06:38:02;9.25;;;4.55;;
68315;SDS011;55508;54.368;18.406;2024-03-29T06:40:28;7.68;;;5.40;;
68315;SDS011;55508;54.368;18.406;2024-03-29T06:42:54;4.82;;;2.95;;
68315;SDS011;55508;54.368;18.406;2024-03-29T06:45:23;8.38;;;4.63;;
68315;SDS011;55508;54.368;18.406;2024-03-29T06:47:50;9.10;;;5.60;;
68315;SDS011;55508;54.368;18.406;2024-03-29T06:50:16;6.63;;;4.00;;
68315;SDS011;55508;54.368;18.406;2024-03-29T06:52:42;5.82;;;4.43;;
68315;SDS011;55508;54.368;18.406;2024-03-29T06:55:08;7.18;;;3.97;;
68315;SDS011;55508;54.368;18.406;2024-03-29T06:57:35;7.35;;;3.85;;
68315;SDS011;55508;54.368;18.406;2024-03-29T07:00:02;8.45;;;4.13;;
68315;SDS011;55508;54.368;18.406;2024-03-29T07:02:29;4.93;;;2.40;;
68315;SDS011;55508;54.368;18.406;2024-03-29T07:04:55;7.38;;;4.05;;
68315;SDS011;55508;54.368;18.406;2024-03-29T07:07:22;6.72;;;4.57;;
68315;SDS011;55508;54.368;18.406;2024-03-29T07:09:48;6.28;;;4.60;;
68315;SDS011;55508;54.368;18.406;2024-03-29T07:12:14;7.03;;;4.30;;
68315;SDS011;55508;54.368;18.406;2024-03-29T07:14:41;4.85;;;3.13;;
68315;SDS011;55508;54.368;18.406;2024-03-29T07:17:07;3.75;;;2.33;;
68315;SDS011;55508;54.368;18.406;2024-03-29T07:19:34;2.28;;;2.08;;
68315;SDS011;55508;54.368;18.406;2024-03-29T07:22:00;2.65;;;2.25;;
68315;SDS011;55508;54.368;18.406;2024-03-29T07:24:26;3.72;;;1.75;;
68315;SDS011;55508;54.368;18.406;2024-03-29T07:26:53;3.17;;;2.00;;
68315;SDS011;55508;54.368;18.406;2024-03-29T07:29:19;6.53;;;2.33;;
68315;SDS011;55508;54.368;18.406;2024-03-29T07:31:46;2.50;;;1.70;;
68315;SDS011;55508;54.368;18.406;2024-03-29T07:34:12;5.03;;;2.05;;
68315;SDS011;55508;54.368;18.406;2024-03-29T07:36:38;3.45;;;2.20;;
68315;SDS011;55508;54.368;18.406;2024-03-29T07:39:06;4.60;;;2.97;;
68315;SDS011;55508;54.368;18.406;2024-03-29T07:41:32;2.80;;;2.10;;
68315;SDS011;55508;54.368;18.406;2024-03-29T07:43:59;2.65;;;2.45;;
68315;SDS011;55508;54.368;18.406;2024-03-29T07:46:31;3.22;;;1.70;;
68315;SDS011;55508;54.368;18.406;2024-03-29T07:48:59;2.60;;;1.60;;
68315;SDS011;55508;54.368;18.406;2024-03-29T07:51:25;4.10;;;2.38;;
68315;SDS011;55508;54.368;18.406;2024-03-29T07:53:51;2.42;;;1.90;;
68315;SDS011;55508;54.368;18.406;2024-03-29T07:56:18;3.55;;;1.90;;
68315;SDS011;55508;54.368;18.406;2024-03-29T07:58:44;3.55;;;2.05;;
68315;SDS011;55508;54.368;18.406;2024-03-29T08:01:10;7.32;;;2.80;;
68315;SDS011;55508;54.368;18.406;2024-03-29T08:03:43;3.38;;;1.65;;
68315;SDS011;55508;54.368;18.406;2024-03-29T08:06:09;3.38;;;1.17;;
68315;SDS011;55508;54.368;18.406;2024-03-29T08:08:36;1.58;;;1.00;;
68315;SDS011;55508;54.368;18.406;2024-03-29T08:11:02;9.07;;;1.65;;
68315;SDS011;55508;54.368;18.406;2024-03-29T08:13:28;2.92;;;1.63;;
68315;SDS011;55508;54.368;18.406;2024-03-29T08:15:58;2.13;;;1.00;;
68315;SDS011;55508;54.368;18.406;2024-03-29T08:18:26;1.50;;;1.05;;
68315;SDS011;55508;54.368;18.406;2024-03-29T08:20:53;3.10;;;1.40;;
68315;SDS011;55508;54.368;18.406;2024-03-29T08:23:21;2.17;;;1.00;;
68315;SDS011;55508;54.368;18.406;2024-03-29T08:25:48;5.50;;;1.10;;
68315;SDS011;55508;54.368;18.406;2024-03-29T08:28:14;1.50;;;0.82;;
68315;SDS011;55508;54.368;18.406;2024-03-29T08:30:41;5.72;;;1.40;;
68315;SDS011;55508;54.368;18.406;2024-03-29T08:33:07;2.63;;;1.00;;
68315;SDS011;55508;54.368;18.406;2024-03-29T08:35:34;1.55;;;1.00;;
68315;SDS011;55508;54.368;18.406;2024-03-29T08:38:00;3.85;;;1.10;;
68315;SDS011;55508;54.368;18.406;2024-03-29T08:40:28;2.35;;;1.00;;
68315;SDS011;55508;54.368;18.406;2024-03-29T08:42:56;4.70;;;1.52;;
68315;SDS011;55508;54.368;18.406;2024-03-29T08:45:23;1.15;;;0.70;;
68315;SDS011;55508;54.368;18.406;2024-03-29T08:47:49;1.77;;;1.00;;
68315;SDS011;55508;54.368;18.406;2024-03-29T08:50:16;1.60;;;0.90;;
68315;SDS011;55508;54.368;18.406;2024-03-29T08:52:42;2.25;;;1.40;;
68315;SDS011;55508;54.368;18.406;2024-03-29T08:55:10;3.95;;;1.27;;
68315;SDS011;55508;54.368;18.406;2024-03-29T08:57:36;2.22;;;1.15;;
68315;SDS011;55508;54.368;18.406;2024-03-29T09:00:03;4.40;;;1.45;;
68315;SDS011;55508;54.368;18.406;2024-03-29T09:02:30;3.30;;;0.80;;
68315;SDS011;55508;54.368;18.406;2024-03-29T09:04:57;2.80;;;1.02;;
68315;SDS011;55508;54.368;18.406;2024-03-29T09:07:24;2.10;;;1.20;;
68315;SDS011;55508;54.368;18.406;2024-03-29T09:09:50;2.92;;;0.90;;
68315;SDS011;55508;54.368;18.406;2024-03-29T09:12:16;2.15;;;1.10;;
68315;SDS011;55508;54.368;18.406;2024-03-29T09:14:44;4.25;;;1.27;;
68315;SDS011;55508;54.368;18.406;2024-03-29T09:17:11;2.08;;;1.20;;
68315;SDS011;55508;54.368;18.406;2024-03-29T09:19:38;2.03;;;1.20;;
68315;SDS011;55508;54.368;18.406;2024-03-29T09:22:04;3.90;;;1.05;;
68315;SDS011;55508;54.368;18.406;2024-03-29T09:24:31;3.08;;;0.90;;
68315;SDS011;55508;54.368;18.406;2024-03-29T09:27:00;1.80;;;0.90;;
68315;SDS011;55508;54.368;18.406;2024-03-29T09:29:27;2.17;;;1.08;;
68315;SDS011;55508;54.368;18.406;2024-03-29T09:31:53;2.00;;;1.17;;
68315;SDS011;55508;54.368;18.406;2024-03-29T09:34:19;1.70;;;1.20;;
68315;SDS011;55508;54.368;18.406;2024-03-29T09:36:45;3.30;;;1.48;;
68315;SDS011;55508;54.368;18.406;2024-03-29T09:39:12;6.10;;;1.20;;
68315;SDS011;55508;54.368;18.406;2024-03-29T09:41:38;10.10;;;1.70;;
68315;SDS011;55508;54.368;18.406;2024-03-29T09:44:07;2.97;;;1.10;;
68315;SDS011;55508;54.368;18.406;2024-03-29T09:46:33;2.70;;;1.35;;
68315;SDS011;55508;54.368;18.406;2024-03-29T09:49:01;3.40;;;1.20;;
68315;SDS011;55508;54.368;18.406;2024-03-29T09:51:28;9.43;;;1.33;;
68315;SDS011;55508;54.368;18.406;2024-03-29T09:53:55;3.85;;;1.05;;
68315;SDS011;55508;54.368;18.406;2024-03-29T09:56:23;3.58;;;1.10;;
68315;SDS011;55508;54.368;18.406;2024-03-29T09:58:51;5.13;;;1.08;;
68315;SDS011;55508;54.368;18.406;2024-03-29T10:01:18;3.22;;;1.40;;
68315;SDS011;55508;54.368;18.406;2024-03-29T10:03:45;3.17;;;0.90;;
68315;SDS011;55508;54.368;18.406;2024-03-29T10:06:15;1.75;;;0.80;;
68315;SDS011;55508;54.368;18.406;2024-03-29T10:08:45;2.38;;;1.05;;
68315;SDS011;55508;54.368;18.406;2024-03-29T10:11:13;2.90;;;1.00;;
68315;SDS011;55508;54.368;18.406;2024-03-29T10:13:42;1.88;;;0.90;;
68315;SDS011;55508;54.368;18.406;2024-03-29T10:16:11;1.58;;;0.60;;
68315;SDS011;55508;54.368;18.406;2024-03-29T10:18:40;1.65;;;0.75;;
68315;SDS011;55508;54.368;18.406;2024-03-29T10:21:09;1.35;;;0.80;;
68315;SDS011;55508;54.368;18.406;2024-03-29T10:23:35;3.38;;;0.90;;
68315;SDS011;55508;54.368;18.406;2024-03-29T10:26:02;2.88;;;0.52;;
68315;SDS011;55508;54.368;18.406;2024-03-29T10:28:32;5.03;;;1.00;;
68315;SDS011;55508;54.368;18.406;2024-03-29T10:33:33;2.75;;;0.93;;
68315;SDS011;55508;54.368;18.406;2024-03-29T10:36:00;2.42;;;0.95;;
68315;SDS011;55508;54.368;18.406;2024-03-29T10:38:30;8.73;;;1.20;;
68315;SDS011;55508;54.368;18.406;2024-03-29T10:40:57;5.10;;;0.90;;
68315;SDS011;55508;54.368;18.406;2024-03-29T10:43:24;2.00;;;0.75;;
68315;SDS011;55508;54.368;18.406;2024-03-29T10:45:50;1.45;;;0.77;;
68315;SDS011;55508;54.368;18.406;2024-03-29T10:48:20;3.78;;;1.10;;
68315;SDS011;55508;54.368;18.406;2024-03-29T10:50:50;3.00;;;1.23;;
68315;SDS011;55508;54.368;18.406;2024-03-29T10:53:17;8.90;;;1.08;;
68315;SDS011;55508;54.368;18.406;2024-03-29T10:55:43;3.05;;;0.95;;
68315;SDS011;55508;54.368;18.406;2024-03-29T10:58:10;1.27;;;0.70;;
68315;SDS011;55508;54.368;18.406;2024-03-29T11:00:38;3.75;;;1.08;;
68315;SDS011;55508;54.368;18.406;2024-03-29T11:03:13;5.93;;;1.00;;
68315;SDS011;55508;54.368;18.406;2024-03-29T11:05:46;2.92;;;0.70;;
68315;SDS011;55508;54.368;18.406;2024-03-29T11:08:16;2.50;;;1.58;;
68315;SDS011;55508;54.368;18.406;2024-03-29T11:10:53;2.83;;;1.73;;
68315;SDS011;55508;54.368;18.406;2024-03-29T11:15:56;8.00;;;2.78;;
68315;SDS011;55508;54.368;18.406;2024-03-29T11:18:22;147.85;;;7.13;;
68315;SDS011;55508;54.368;18.406;2024-03-29T11:20:50;8.93;;;2.58;;
68315;SDS011;55508;54.368;18.406;2024-03-29T11:23:17;7.70;;;2.60;;
68315;SDS011;55508;54.368;18.406;2024-03-29T11:25:45;9.05;;;2.83;;
68315;SDS011;55508;54.368;18.406;2024-03-29T11:28:28;9.77;;;2.63;;
68315;SDS011;55508;54.368;18.406;2024-03-29T11:31:02;16.80;;;4.47;;
68315;SDS011;55508;54.368;18.406;2024-03-29T11:36:10;4.65;;;1.95;;
68315;SDS011;55508;54.368;18.406;2024-03-29T11:38:42;2.28;;;0.85;;
68315;SDS011;55508;54.368;18.406;2024-03-29T11:41:13;4.90;;;0.90;;
68315;SDS011;55508;54.368;18.406;2024-03-29T11:43:40;3.53;;;1.02;;
68315;SDS011;55508;54.368;18.406;2024-03-29T11:46:09;11.82;;;1.10;;
68315;SDS011;55508;54.368;18.406;2024-03-29T11:48:37;2.50;;;1.00;;
68315;SDS011;55508;54.368;18.406;2024-03-29T11:51:05;9.00;;;1.10;;
68315;SDS011;55508;54.368;18.406;2024-03-29T11:53:34;1.23;;;0.80;;
68315;SDS011;55508;54.368;18.406;2024-03-29T11:56:01;6.43;;;1.77;;
68315;SDS011;55508;54.368;18.406;2024-03-29T11:58:28;10.82;;;2.63;;
68315;SDS011;55508;54.368;18.406;2024-03-29T12:00:57;3.50;;;1.50;;
68315;SDS011;55508;54.368;18.406;2024-03-29T12:03:25;7.13;;;3.30;;
68315;SDS011;55508;54.368;18.406;2024-03-29T12:05:52;8.15;;;3.13;;
68315;SDS011;55508;54.368;18.406;2024-03-29T12:08:21;15.18;;;1.48;;
68315;SDS011;55508;54.368;18.406;2024-03-29T12:10:48;3.65;;;2.00;;
68315;SDS011;55508;54.368;18.406;2024-03-29T12:13:15;5.00;;;1.00;;
68315;SDS011;55508;54.368;18.406;2024-03-29T12:15:42;3.83;;;2.22;;
68315;SDS011;55508;54.368;18.406;2024-03-29T12:18:09;4.57;;;1.50;;
68315;SDS011;55508;54.368;18.406;2024-03-29T12:20:38;2.25;;;0.80;;
68315;SDS011;55508;54.368;18.406;2024-03-29T12:23:05;1.65;;;0.95;;
68315;SDS011;55508;54.368;18.406;2024-03-29T12:25:33;6.32;;;0.88;;
68315;SDS011;55508;54.368;18.406;2024-03-29T12:28:00;2.03;;;0.68;;
68315;SDS011;55508;54.368;18.406;2024-03-29T12:30:27;6.43;;;4.22;;
68315;SDS011;55508;54.368;18.406;2024-03-29T12:33:00;4.90;;;2.80;;
68315;SDS011;55508;54.368;18.406;2024-03-29T12:35:28;2.03;;;1.23;;
68315;SDS011;55508;54.368;18.406;2024-03-29T12:37:58;5.05;;;2.90;;
68315;SDS011;55508;54.368;18.406;2024-03-29T12:40:26;2.85;;;1.80;;
68315;SDS011;55508;54.368;18.406;2024-03-29T12:42:54;4.10;;;1.10;;
68315;SDS011;55508;54.368;18.406;2024-03-29T12:45:20;6.63;;;0.88;;
68315;SDS011;55508;54.368;18.406;2024-03-29T12:47:48;4.18;;;0.95;;
68315;SDS011;55508;54.368;18.406;2024-03-29T12:50:33;5.18;;;2.38;;
68315;SDS011;55508;54.368;18.406;2024-03-29T12:53:06;2.30;;;1.00;;
68315;SDS011;55508;54.368;18.406;2024-03-29T12:55:33;3.63;;;1.95;;
68315;SDS011;55508;54.368;18.406;2024-03-29T12:58:01;3.47;;;2.00;;
68315;SDS011;55508;54.368;18.406;2024-03-29T13:00:30;3.47;;;1.83;;
68315;SDS011;55508;54.368;18.406;2024-03-29T13:02:57;2.92;;;0.88;;
68315;SDS011;55508;54.368;18.406;2024-03-29T13:05:23;3.47;;;2.15;;
68315;SDS011;55508;54.368;18.406;2024-03-29T13:07:50;5.28;;;2.78;;
68315;SDS011;55508;54.368;18.406;2024-03-29T13:10:16;1.95;;;0.60;;
68315;SDS011;55508;54.368;18.406;2024-03-29T13:12:47;5.68;;;1.27;;
68315;SDS011;55508;54.368;18.406;2024-03-29T13:15:21;5.13;;;1.00;;
68315;SDS011;55508;54.368;18.406;2024-03-29T13:17:51;3.25;;;0.80;;
68315;SDS011;55508;54.368;18.406;2024-03-29T13:20:21;3.33;;;0.95;;
68315;SDS011;55508;54.368;18.406;2024-03-29T13:22:49;3.30;;;1.10;;
68315;SDS011;55508;54.368;18.406;2024-03-29T13:25:16;5.07;;;1.45;;
68315;SDS011;55508;54.368;18.406;2024-03-29T13:27:45;2.10;;;0.88;;
68315;SDS011;55508;54.368;18.406;2024-03-29T13:30:13;3.55;;;0.85;;
68315;SDS011;55508;54.368;18.406;2024-03-29T13:32:41;2.00;;;1.20;;
68315;SDS011;55508;54.368;18.406;2024-03-29T13:35:08;3.65;;;1.25;;
68315;SDS011;55508;54.368;18.406;2024-03-29T13:37:38;5.13;;;0.90;;
68315;SDS011;55508;54.368;18.406;2024-03-29T13:40:06;2.55;;;0.90;;
68315;SDS011;55508;54.368;18.406;2024-03-29T13:42:34;1.38;;;1.10;;
68315;SDS011;55508;54.368;18.406;2024-03-29T13:45:01;4.30;;;1.40;;
68315;SDS011;55508;54.368;18.406;2024-03-29T13:47:27;2.28;;;0.73;;
68315;SDS011;55508;54.368;18.406;2024-03-29T13:49:54;4.15;;;0.88;;
68315;SDS011;55508;54.368;18.406;2024-03-29T13:52:22;2.88;;;1.30;;
68315;SDS011;55508;54.368;18.406;2024-03-29T13:54:48;2.75;;;1.05;;
68315;SDS011;55508;54.368;18.406;2024-03-29T13:57:16;7.63;;;1.20;;
68315;SDS011;55508;54.368;18.406;2024-03-29T13:59:46;2.60;;;1.30;;
68315;SDS011;55508;54.368;18.406;2024-03-29T14:02:13;2.90;;;1.10;;
68315;SDS011;55508;54.368;18.406;2024-03-29T14:04:41;3.10;;;1.50;;
68315;SDS011;55508;54.368;18.406;2024-03-29T14:07:11;1.60;;;0.90;;
68315;SDS011;55508;54.368;18.406;2024-03-29T14:09:40;3.67;;;1.40;;
68315;SDS011;55508;54.368;18.406;2024-03-29T14:12:07;3.28;;;1.40;;
68315;SDS011;55508;54.368;18.406;2024-03-29T14:14:34;6.05;;;2.00;;
68315;SDS011;55508;54.368;18.406;2024-03-29T14:17:00;4.03;;;0.82;;
68315;SDS011;55508;54.368;18.406;2024-03-29T14:19:30;3.10;;;1.30;;
68315;SDS011;55508;54.368;18.406;2024-03-29T14:21:59;2.95;;;1.02;;
68315;SDS011;55508;54.368;18.406;2024-03-29T14:24:26;3.65;;;0.80;;
68315;SDS011;55508;54.368;18.406;2024-03-29T14:26:53;2.20;;;0.80;;
68315;SDS011;55508;54.368;18.406;2024-03-29T14:29:21;3.92;;;1.40;;
68315;SDS011;55508;54.368;18.406;2024-03-29T14:31:47;3.83;;;0.98;;
68315;SDS011;55508;54.368;18.406;2024-03-29T14:34:17;2.45;;;0.90;;
68315;SDS011;55508;54.368;18.406;2024-03-29T14:36:43;2.45;;;1.00;;
68315;SDS011;55508;54.368;18.406;2024-03-29T14:39:10;2.72;;;1.25;;
68315;SDS011;55508;54.368;18.406;2024-03-29T14:41:40;2.38;;;0.80;;
68315;SDS011;55508;54.368;18.406;2024-03-29T14:44:06;1.58;;;0.90;;
68315;SDS011;55508;54.368;18.406;2024-03-29T14:46:35;3.25;;;1.17;;
68315;SDS011;55508;54.368;18.406;2024-03-29T14:49:02;5.55;;;1.13;;